Time;durP1;ratioP1;P1;durP2;ratioP2;P2;SDS_P1;SDS_P2;PMS_P1;PMS_P2;Temp;Humidity;BMP_temperature;BMP_pressure;BME280_temperature;BME280_humidity;BME280_pressure;Samples;Min_cycle;Max_cycle;Signal;HPM_P1;HPM_P2
2023/10/02 00:01:53;;;;;;;8.18;5.57;;;18.60;64.30;;;;;;5012722;28;20046;-53
2023/10/02 00:04:24;;;;;;;10.77;6.72;;;18.50;64.40;;;;;;5012898;28;20120;-53
2023/10/02 00:07:06;;;;;;;9.82;5.95;;;18.50;64.70;;;;;;5012315;28;20108;-51
2023/10/02 00:09:36;;;;;;;10.65;5.70;;;18.50;64.60;;;;;;5013376;28;20045;-51
2023/10/02 00:12:11;;;;;;;11.95;6.68;;;18.40;64.60;;;;;;5012415;28;20041;-53
2023/10/02 00:14:41;;;;;;;11.02;6.30;;;18.40;64.70;;;;;;5012787;28;20053;-51
2023/10/02 00:17:18;;;;;;;11.05;6.90;;;18.40;64.80;;;;;;5012369;28;20096;-58
2023/10/02 00:19:50;;;;;;;10.35;6.15;;;18.30;64.90;;;;;;5023623;28;20136;-54
2023/10/02 00:22:36;;;;;;;10.43;6.35;;;18.40;65.10;;;;;;5011592;28;20130;-50
2023/10/02 00:25:06;;;;;;;9.10;5.45;;;18.30;64.90;;;;;;5012925;28;20040;-49
2023/10/02 00:27:37;;;;;;;10.18;6.20;;;18.30;64.80;;;;;;5011789;28;20049;-53
2023/10/02 00:30:07;;;;;;;10.50;5.80;;;18.30;65.10;;;;;;5014197;28;20148;-56
2023/10/02 00:32:40;;;;;;;10.73;6.05;;;18.30;65.00;;;;;;5011477;28;20828;-50
2023/10/02 00:35:11;;;;;;;14.05;6.47;;;18.30;65.10;;;;;;5011577;28;20427;-54
2023/10/02 00:37:51;;;;;;;10.07;6.05;;;18.20;65.30;;;;;;5017149;28;20732;-54
2023/10/02 00:40:26;;;;;;;9.68;6.65;;;18.20;65.40;;;;;;5014575;28;20081;-54
2023/10/02 00:43:33;;;;;;;12.40;7.25;;;18.20;65.30;;;;;;5000943;28;20162;-50
2023/10/02 00:45:51;;;;;;;12.68;6.55;;;18.20;65.60;;;;;;5013357;28;20073;-50
2023/10/02 00:48:28;;;;;;;13.07;7.40;;;18.20;65.40;;;;;;5015214;28;20046;-51
2023/10/02 00:51:05;;;;;;;9.05;5.57;;;18.20;65.60;;;;;;5011890;28;20044;-52
2023/10/02 00:53:45;;;;;;;13.02;7.55;;;18.20;65.60;;;;;;5012249;28;20070;-52
2023/10/02 00:56:19;;;;;;;10.23;6.10;;;18.10;65.70;;;;;;5010756;28;20129;-52
2023/10/02 00:58:58;;;;;;;12.50;6.25;;;18.10;65.60;;;;;;5010664;28;20041;-53
2023/10/02 01:01:31;;;;;;;10.68;6.90;;;18.20;65.90;;;;;;5012955;28;20046;-56
2023/10/02 01:04:09;;;;;;;9.73;6.85;;;18.10;65.70;;;;;;5010975;28;20038;-54
2023/10/02 01:09:30;;;;;;;10.82;7.45;;;18.10;65.90;;;;;;5011527;28;20117;-54
2023/10/02 01:12:02;;;;;;;12.95;7.03;;;18.10;65.80;;;;;;5011830;28;20567;-51
2023/10/02 01:17:17;;;;;;;11.75;6.97;;;18.10;66.20;;;;;;5010815;28;20100;-55
2023/10/02 01:19:54;;;;;;;12.80;7.65;;;18.00;66.00;;;;;;5011165;28;20049;-54
2023/10/02 01:22:29;;;;;;;12.02;7.05;;;18.00;66.20;;;;;;5009981;28;20088;-54
2023/10/02 01:25:13;;;;;;;12.25;6.65;;;18.10;66.20;;;;;;5020500;28;20037;-54
2023/10/02 01:27:48;;;;;;;12.15;7.07;;;18.00;66.50;;;;;;5010433;28;20034;-50
2023/10/02 01:30:21;;;;;;;12.30;7.32;;;18.00;66.30;;;;;;5011161;28;20041;-55
2023/10/02 01:33:06;;;;;;;10.38;6.45;;;18.00;66.30;;;;;;5017488;28;20049;-50
2023/10/02 01:35:46;;;;;;;12.55;6.72;;;18.00;66.40;;;;;;5012411;28;20044;-54
2023/10/02 01:38:32;;;;;;;9.95;5.90;;;18.00;66.30;;;;;;5010933;28;20500;-53
2023/10/02 01:43:43;;;;;;;11.65;6.43;;;18.00;66.20;;;;;;5011253;28;20137;-51
2023/10/02 01:46:17;;;;;;;10.18;6.22;;;18.00;66.40;;;;;;5010542;28;20664;-54
2023/10/02 01:48:48;;;;;;;10.85;6.00;;;18.00;66.30;;;;;;5010204;28;20796;-53
2023/10/02 01:51:20;;;;;;;9.90;6.60;;;18.00;66.40;;;;;;5009877;28;20096;-56
2023/10/02 01:53:49;;;;;;;9.93;5.90;;;18.00;66.70;;;;;;5012073;28;20526;-55
2023/10/02 01:56:20;;;;;;;8.32;5.53;;;17.90;66.50;;;;;;5010613;28;20499;-52
2023/10/02 01:58:52;;;;;;;11.98;6.43;;;17.90;66.30;;;;;;5009449;28;20050;-50
2023/10/02 02:01:22;;;;;;;11.10;5.82;;;17.90;66.40;;;;;;5010508;28;20053;-53
2023/10/02 02:03:55;;;;;;;13.27;6.93;;;17.90;66.50;;;;;;5011677;28;20041;-56
2023/10/02 02:06:23;;;;;;;12.07;6.80;;;17.90;66.70;;;;;;5008686;28;20108;-53
2023/10/02 02:08:58;;;;;;;10.77;6.25;;;17.90;66.40;;;;;;5013740;28;20057;-56
2023/10/02 02:11:37;;;;;;;10.13;5.50;;;17.90;66.30;;;;;;5009618;28;20038;-54
2023/10/02 02:14:10;;;;;;;12.02;6.57;;;17.80;66.50;;;;;;5011113;28;20551;-53
2023/10/02 02:16:38;;;;;;;9.05;5.50;;;17.80;66.30;;;;;;5014797;28;20129;-52
2023/10/02 02:19:07;;;;;;;10.60;5.90;;;17.80;66.40;;;;;;5009614;28;20034;-52
2023/10/02 02:21:35;;;;;;;12.95;6.63;;;17.80;66.40;;;;;;5009832;28;20072;-55
2023/10/02 02:24:03;;;;;;;11.23;5.93;;;17.80;66.40;;;;;;5008964;28;20062;-50
2023/10/02 02:26:33;;;;;;;8.68;6.32;;;17.80;66.40;;;;;;5009643;28;20115;-53
2023/10/02 02:29:05;;;;;;;10.70;5.90;;;17.70;66.40;;;;;;5010793;28;20077;-54
2023/10/02 02:31:39;;;;;;;10.40;6.60;;;17.70;66.40;;;;;;5015140;28;20050;-55
2023/10/02 02:34:20;;;;;;;13.27;6.97;;;17.70;66.40;;;;;;5011362;28;20109;-53
2023/10/02 02:36:50;;;;;;;12.13;6.60;;;17.70;66.40;;;;;;5018434;28;20586;-51
2023/10/02 02:39:22;;;;;;;9.52;6.22;;;17.70;66.50;;;;;;5010338;28;20112;-53
2023/10/02 02:44:49;;;;;;;8.23;4.45;;;17.70;66.40;;;;;;5013399;28;19929;-53
2023/10/02 02:47:20;;;;;;;11.13;6.32;;;17.60;66.00;;;;;;5010646;28;20500;-50
2023/10/02 02:49:51;;;;;;;9.73;5.95;;;17.60;66.20;;;;;;5010824;28;20412;-53
2023/10/02 02:52:22;;;;;;;12.48;5.90;;;17.60;66.20;;;;;;5018316;28;20050;-51
2023/10/02 02:55:05;;;;;;;13.75;7.68;;;17.50;66.20;;;;;;5010213;28;20534;-50
2023/10/02 02:57:38;;;;;;;9.88;5.53;;;17.50;66.40;;;;;;5009514;28;20044;-52
2023/10/02 03:03:02;;;;;;;9.93;6.38;;;17.50;66.40;;;;;;5009676;28;20586;-50
2023/10/02 03:05:40;;;;;;;9.52;5.88;;;17.50;66.60;;;;;;5007548;28;20096;-53
2023/10/02 03:08:14;;;;;;;8.95;5.40;;;17.50;66.80;;;;;;5010951;28;20117;-50
2023/10/02 03:10:57;;;;;;;10.45;5.95;;;17.40;66.60;;;;;;5009054;28;20042;-51
2023/10/02 03:13:27;;;;;;;11.90;6.03;;;17.40;66.80;;;;;;5007966;28;20048;-53
2023/10/02 03:15:53;;;;;;;10.85;5.68;;;17.40;66.70;;;;;;5010266;28;20462;-54
2023/10/02 03:18:24;;;;;;;11.27;6.07;;;17.40;66.80;;;;;;5010957;28;20049;-55
2023/10/02 03:20:52;;;;;;;9.77;5.60;;;17.40;67.20;;;;;;5009042;28;20574;-54
2023/10/02 03:23:19;;;;;;;11.40;6.15;;;17.40;67.20;;;;;;5008462;28;20116;-56
2023/10/02 03:25:55;;;;;;;11.18;6.78;;;17.40;67.20;;;;;;5008758;28;20073;-52
2023/10/02 03:28:27;;;;;;;10.73;6.05;;;17.40;67.40;;;;;;5009473;28;20041;-56
2023/10/02 03:30:55;;;;;;;8.52;5.60;;;17.40;67.20;;;;;;5008953;28;20053;-54
2023/10/02 03:33:22;;;;;;;14.73;7.18;;;17.40;67.10;;;;;;5009752;28;20125;-50
2023/10/02 03:38:33;;;;;;;10.45;6.15;;;17.40;67.30;;;;;;5009555;28;20045;-54
2023/10/02 03:41:09;;;;;;;9.30;5.50;;;17.40;67.30;;;;;;5008352;28;20112;-53
2023/10/02 03:43:43;;;;;;;11.57;6.03;;;17.40;67.40;;;;;;5009921;28;20041;-55
2023/10/02 03:46:23;;;;;;;9.10;5.70;;;17.40;67.50;;;;;;5008709;28;20534;-53
2023/10/02 03:48:51;;;;;;;12.65;6.93;;;17.40;67.70;;;;;;5009151;28;20049;-54
2023/10/02 03:51:36;;;;;;;10.48;6.00;;;17.40;67.80;;;;;;5010842;28;20048;-55
2023/10/02 03:54:23;;;;;;;12.35;6.03;;;17.40;68.00;;;;;;5008207;28;20049;-53
2023/10/02 03:56:56;;;;;;;10.15;6.15;;;17.40;68.20;;;;;;5009326;28;20092;-54
2023/10/02 03:59:26;;;;;;;12.25;6.90;;;17.40;68.50;;;;;;5013554;28;20088;-52
2023/10/02 04:01:57;;;;;;;12.98;6.60;;;17.40;68.40;;;;;;5008963;28;20038;-56
2023/10/02 04:04:24;;;;;;;10.70;6.80;;;17.50;68.60;;;;;;5008817;28;20424;-54
2023/10/02 04:06:55;;;;;;;14.23;7.67;;;17.40;68.50;;;;;;5015745;28;20096;-53
2023/10/02 04:09:23;;;;;;;12.57;6.25;;;17.40;68.50;;;;;;5008201;28;20116;-53
2023/10/02 04:11:55;;;;;;;12.75;7.75;;;17.40;68.60;;;;;;5008171;28;20229;-54
2023/10/02 04:17:22;;;;;;;12.52;6.25;;;17.40;68.70;;;;;;5008329;28;20124;-53
2023/10/02 04:19:51;;;;;;;11.95;7.45;;;17.40;68.60;;;;;;5008307;28;20046;-51
2023/10/02 04:22:22;;;;;;;;;;;17.50;68.80;;;;;;5010776;28;20105;-53
2023/10/02 04:24:58;;;;;;;10.48;5.50;;;17.50;68.90;;;;;;5006284;28;19928;-51
2023/10/02 04:32:49;;;;;;;11.38;6.60;;;17.50;68.40;;;;;;5011075;28;20037;-55
2023/10/02 04:36:05;;;;;;;10.35;6.85;;;17.50;68.40;;;;;;5012850;28;20038;-55
2023/10/02 04:38:14;;;;;;;11.50;6.40;;;17.40;68.30;;;;;;5006567;28;20054;-53
2023/10/02 04:40:49;;;;;;;12.18;6.00;;;17.40;68.10;;;;;;5009922;28;20088;-51
2023/10/02 04:43:25;;;;;;;11.50;6.32;;;17.40;68.10;;;;;;5011962;28;20093;-53
2023/10/02 04:46:08;;;;;;;10.93;5.68;;;17.40;68.00;;;;;;5015686;28;20042;-51
2023/10/02 04:48:42;;;;;;;10.57;5.88;;;17.40;68.30;;;;;;5012476;28;20048;-51
2023/10/02 04:51:12;;;;;;;11.00;6.10;;;17.40;67.90;;;;;;5014213;28;20056;-52
2023/10/02 04:53:46;;;;;;;10.80;6.63;;;17.30;67.80;;;;;;5017987;28;20052;-50
2023/10/02 04:58:51;;;;;;;12.15;6.55;;;17.30;68.40;;;;;;5012216;28;20049;-52
2023/10/02 05:01:28;;;;;;;9.60;6.03;;;17.30;67.90;;;;;;5011839;28;20408;-54
2023/10/02 05:04:03;;;;;;;10.48;6.32;;;17.30;67.90;;;;;;5010646;28;20049;-54
2023/10/02 05:09:32;;;;;;;11.52;6.05;;;17.20;67.70;;;;;;5011872;28;20056;-52
2023/10/02 05:12:04;;;;;;;8.05;5.32;;;17.10;67.70;;;;;;5011854;28;20045;-53
2023/10/02 05:14:47;;;;;;;11.18;6.35;;;17.10;67.70;;;;;;5013197;28;20080;-53
2023/10/02 05:17:17;;;;;;;10.60;6.13;;;17.10;67.70;;;;;;5012233;28;20046;-53
2023/10/02 05:20:01;;;;;;;10.30;6.15;;;17.00;67.70;;;;;;5018692;28;20630;-53
2023/10/02 05:22:33;;;;;;;8.48;5.47;;;17.00;67.80;;;;;;5011797;28;20045;-54
2023/10/02 05:25:04;;;;;;;9.35;5.07;;;17.00;67.90;;;;;;5011793;28;20046;-50
2023/10/02 05:27:35;;;;;;;9.00;5.70;;;17.00;67.90;;;;;;5012652;28;20070;-54
2023/10/02 05:30:25;;;;;;;9.13;5.43;;;16.90;68.00;;;;;;5011858;28;20046;-54
2023/10/02 05:32:53;;;;;;;13.38;6.40;;;16.90;68.30;;;;;;5015610;28;20046;-54
2023/10/02 05:35:25;;;;;;;8.85;5.63;;;16.90;67.80;;;;;;5010873;28;20100;-49
2023/10/02 05:37:54;;;;;;;9.65;5.95;;;16.90;68.00;;;;;;5016886;28;20057;-50
2023/10/02 05:48:27;;;;;;;10.75;6.53;;;17.10;68.20;;;;;;5018769;28;20115;-50
2023/10/02 05:50:58;;;;;;;9.75;5.78;;;16.80;68.00;;;;;;5016816;28;20045;-49
2023/10/02 05:53:34;;;;;;;9.52;5.57;;;16.90;68.00;;;;;;5018421;28;20037;-50
2023/10/02 05:56:05;;;;;;;10.10;5.28;;;16.80;68.10;;;;;;5015651;28;20685;-53
2023/10/02 05:58:32;;;;;;;8.20;5.30;;;16.80;67.90;;;;;;5013710;28;20033;-54
2023/10/02 06:01:18;;;;;;;10.43;6.40;;;16.80;68.10;;;;;;5011067;28;20038;-51
2023/10/02 06:04:00;;;;;;;11.50;5.47;;;16.70;68.20;;;;;;5010150;28;20712;-50
2023/10/02 06:06:35;;;;;;;9.43;5.68;;;16.80;68.20;;;;;;5011354;28;20060;-53
2023/10/02 06:09:12;;;;;;;10.35;5.38;;;16.70;68.20;;;;;;5013399;28;20103;-53
2023/10/02 06:12:02;;;;;;;11.02;6.03;;;16.80;68.40;;;;;;5010706;28;20065;-50
2023/10/02 06:14:38;;;;;;;11.98;6.57;;;16.80;68.50;;;;;;5007958;28;20244;-51
2023/10/02 06:17:11;;;;;;;9.00;5.28;;;16.80;68.60;;;;;;5011063;28;20037;-50
2023/10/02 06:19:43;;;;;;;12.20;6.38;;;16.80;68.80;;;;;;5010170;28;20508;-50
2023/10/02 06:22:13;;;;;;;10.73;5.93;;;16.80;68.90;;;;;;5009712;28;20530;-52
2023/10/02 06:24:43;;;;;;;11.98;7.25;;;16.80;68.90;;;;;;5015516;28;20049;-51
2023/10/02 06:27:17;;;;;;;8.85;5.70;;;16.80;69.20;;;;;;5020305;28;20123;-52
2023/10/02 06:29:44;;;;;;;11.05;5.80;;;16.90;69.30;;;;;;5014036;28;20107;-53
2023/10/02 06:32:14;;;;;;;9.20;6.00;;;16.90;69.30;;;;;;5009567;28;20070;-54
2023/10/02 06:34:44;;;;;;;9.55;5.80;;;16.90;69.50;;;;;;5009826;28;20427;-53
2023/10/02 06:37:35;;;;;;;9.73;5.40;;;17.00;69.60;;;;;;5015377;28;20045;-52
2023/10/02 06:40:20;;;;;;;10.63;5.63;;;17.00;70.10;;;;;;5016218;28;20095;-54
2023/10/02 06:42:51;;;;;;;9.80;5.63;;;17.00;69.80;;;;;;5009329;28;20064;-53
2023/10/02 06:45:20;;;;;;;9.73;5.38;;;17.10;70.00;;;;;;5001568;28;20042;-53
2023/10/02 06:47:50;;;;;;;11.40;6.38;;;17.10;70.10;;;;;;5009134;28;20052;-53
2023/10/02 06:50:34;;;;;;;12.15;7.15;;;17.10;70.20;;;;;;5013581;28;20053;-52
2023/10/02 06:53:01;;;;;;;10.00;5.97;;;17.20;70.30;;;;;;5008128;28;20044;-53
2023/10/02 06:55:32;;;;;;;9.38;5.68;;;17.40;70.40;;;;;;5014096;28;20037;-54
2023/10/02 06:57:58;;;;;;;9.30;5.75;;;17.30;70.40;;;;;;5010531;28;20057;-51
2023/10/02 07:00:36;;;;;;;10.18;6.25;;;17.40;70.70;;;;;;5013293;28;20041;-50
2023/10/02 07:03:04;;;;;;;10.13;5.88;;;17.40;70.70;;;;;;5008791;28;20096;-51
2023/10/02 07:05:33;;;;;;;9.50;5.55;;;17.50;70.80;;;;;;5010768;28;20050;-49
2023/10/02 07:11:10;;;;;;;9.18;5.93;;;17.50;71.40;;;;;;5000222;28;20093;-53
2023/10/02 07:13:51;;;;;;;11.55;6.40;;;17.60;71.00;;;;;;5010368;28;20057;-52
2023/10/02 07:16:17;;;;;;;10.30;6.40;;;17.60;71.00;;;;;;5020166;28;20065;-52
2023/10/02 07:18:49;;;;;;;11.02;6.35;;;17.70;71.20;;;;;;5011793;28;20045;-54
2023/10/02 07:21:19;;;;;;;13.82;6.80;;;17.70;71.30;;;;;;5011878;28;20049;-50
2023/10/02 07:23:46;;;;;;;11.95;6.25;;;17.70;71.50;;;;;;5008578;28;20049;-55
2023/10/02 07:26:15;;;;;;;11.13;6.65;;;17.80;71.60;;;;;;5012519;28;20034;-53
2023/10/02 07:28:50;;;;;;;14.77;8.40;;;17.90;71.80;;;;;;5009031;28;20045;-54
2023/10/02 07:31:18;;;;;;;15.50;7.38;;;17.90;71.90;;;;;;5010645;28;20124;-52
2023/10/02 07:33:45;;;;;;;14.77;7.90;;;18.00;72.20;;;;;;5008402;28;20128;-52
2023/10/02 07:36:14;;;;;;;13.40;8.05;;;18.10;72.10;;;;;;5010048;28;20046;-51
2023/10/02 07:38:42;;;;;;;15.82;7.80;;;18.10;72.10;;;;;;5008841;28;20121;-52
2023/10/02 07:41:32;;;;;;;12.93;7.40;;;18.20;72.30;;;;;;5012736;28;20484;-54
2023/10/02 07:44:08;;;;;;;15.60;8.15;;;18.30;73.50;;;;;;5009049;28;20046;-54
2023/10/02 07:46:36;;;;;;;14.00;8.10;;;18.40;72.90;;;;;;5009522;28;20089;-51
2023/10/02 07:49:08;;;;;;;14.00;7.47;;;18.40;72.90;;;;;;5009096;28;20056;-55
2023/10/02 07:51:39;;;;;;;15.55;9.40;;;18.50;73.20;;;;;;5010245;28;20392;-52
2023/10/02 07:54:07;;;;;;;15.23;8.05;;;18.60;73.20;;;;;;5013968;28;20042;-53
2023/10/02 07:56:40;;;;;;;15.37;7.60;;;18.70;73.10;;;;;;5009371;28;20678;-52
2023/10/02 07:59:07;;;;;;;16.55;8.52;;;18.80;73.20;;;;;;5014493;28;20100;-54
2023/10/02 08:01:39;;;;;;;18.63;8.40;;;18.80;73.60;;;;;;5010278;28;20053;-54
2023/10/02 08:04:06;;;;;;;14.65;7.07;;;19.00;73.80;;;;;;5008810;28;20635;-54
2023/10/02 08:06:36;;;;;;;15.15;8.50;;;19.00;73.60;;;;;;5010913;28;20049;-52
2023/10/02 08:12:02;;;;;;;16.67;8.55;;;19.20;73.70;;;;;;5008898;28;20042;-53
2023/10/02 08:17:22;;;;;;;15.30;8.18;;;19.40;73.60;;;;;;5008808;28;20046;-52
2023/10/02 08:19:55;;;;;;;15.15;8.85;;;19.50;74.10;;;;;;5010329;28;20380;-54
2023/10/02 08:22:35;;;;;;;15.20;7.95;;;19.60;73.70;;;;;;5018094;28;20092;-54
2023/10/02 08:25:12;;;;;;;15.50;7.83;;;19.70;74.30;;;;;;5012614;28;20042;-51
2023/10/02 08:27:46;;;;;;;16.33;8.55;;;19.80;73.80;;;;;;5013411;28;20053;-54
2023/10/02 08:30:27;;;;;;;14.00;7.65;;;19.90;74.30;;;;;;5018353;28;20577;-54
2023/10/02 08:33:09;;;;;;;15.23;9.13;;;20.00;74.20;;;;;;5018090;28;20042;-53
2023/10/02 08:36:01;;;;;;;17.73;8.80;;;20.00;74.20;;;;;;5019879;28;20092;-53
2023/10/02 08:38:30;;;;;;;15.68;8.45;;;20.10;73.50;;;;;;5013324;28;20084;-52
2023/10/02 08:41:03;;;;;;;20.73;9.10;;;20.20;73.00;;;;;;5014691;28;20077;-51
2023/10/02 08:43:49;;;;;;;18.27;8.43;;;20.20;72.20;;;;;;5011933;28;20057;-54
2023/10/02 08:46:23;;;;;;;18.27;9.77;;;20.30;72.20;;;;;;5022895;28;20508;-51
2023/10/02 08:48:56;;;;;;;17.23;9.65;;;20.40;71.60;;;;;;5012414;28;20120;-54
2023/10/02 08:51:35;;;;;;;17.30;9.98;;;20.50;71.50;;;;;;5016757;28;20052;-53
2023/10/02 08:54:05;;;;;;;19.85;10.95;;;20.60;71.60;;;;;;5016839;28;20045;-55
2023/10/02 08:56:48;;;;;;;18.38;9.20;;;20.60;70.90;;;;;;5013226;28;20049;-53
2023/10/02 08:59:30;;;;;;;20.88;9.73;;;20.70;70.50;;;;;;5017312;28;20048;-54
2023/10/02 09:02:21;;;;;;;16.50;9.23;;;20.80;70.40;;;;;;5013334;28;20045;-54
2023/10/02 09:04:55;;;;;;;15.88;8.73;;;20.90;70.00;;;;;;5011289;28;20042;-52
2023/10/02 09:07:24;;;;;;;17.30;9.25;;;21.00;69.70;;;;;;5016671;28;20033;-52
2023/10/02 09:10:41;;;;;;;17.38;10.15;;;21.10;69.50;;;;;;5015205;28;20030;-53
2023/10/02 09:13:14;;;;;;;14.68;8.80;;;21.20;69.10;;;;;;5014262;28;20080;-50
2023/10/02 09:16:10;;;;;;;16.52;9.88;;;21.30;68.80;;;;;;5011779;28;20112;-49
2023/10/02 09:21:37;;;;;;;17.60;9.93;;;21.50;67.60;;;;;;5013482;28;20034;-50
2023/10/02 09:24:19;;;;;;;17.30;10.13;;;21.60;67.30;;;;;;5011416;28;20100;-55
2023/10/02 09:26:46;;;;;;;19.20;10.55;;;21.80;66.80;;;;;;5011675;28;20049;-51
2023/10/02 09:29:16;;;;;;;16.95;9.23;;;21.90;67.30;;;;;;5014215;28;20132;-53
2023/10/02 09:31:43;;;;;;;21.17;10.65;;;22.00;66.60;;;;;;5010849;28;20042;-54
2023/10/02 09:34:26;;;;;;;17.35;9.75;;;22.10;66.50;;;;;;5013230;28;20462;-51
2023/10/02 09:37:26;;;;;;;15.77;9.77;;;22.30;66.10;;;;;;5019689;28;20048;-52
2023/10/02 09:40:17;;;;;;;17.02;9.35;;;22.40;66.00;;;;;;5011629;28;20702;-52
2023/10/02 09:43:00;;;;;;;17.13;10.13;;;22.50;65.00;;;;;;5013589;28;20045;-52
2023/10/02 09:45:37;;;;;;;17.63;9.68;;;22.60;64.80;;;;;;5010460;28;20044;-50
2023/10/02 09:48:46;;;;;;;15.07;9.20;;;22.70;65.50;;;;;;5011525;28;20651;-51
2023/10/02 09:51:06;;;;;;;18.27;9.10;;;22.80;65.10;;;;;;5013347;28;20046;-51
2023/10/02 09:53:40;;;;;;;20.45;10.10;;;22.90;64.20;;;;;;5010538;28;20502;-51
2023/10/02 09:56:17;;;;;;;19.10;9.82;;;23.00;63.60;;;;;;5010604;28;20451;-54
2023/10/02 09:59:12;;;;;;;14.07;9.02;;;23.00;63.50;;;;;;5012210;28;20038;-53
2023/10/02 10:01:39;;;;;;;15.65;10.00;;;23.10;63.80;;;;;;5010751;28;20037;-54
2023/10/02 10:04:32;;;;;;;17.52;9.70;;;23.20;63.80;;;;;;5011224;28;20502;-53
2023/10/02 10:07:35;;;;;;;16.73;9.70;;;23.30;63.60;;;;;;5010970;28;20049;-54
2023/10/02 10:10:29;;;;;;;14.18;9.15;;;23.40;63.00;;;;;;5013047;28;20046;-54
2023/10/02 10:12:58;;;;;;;19.55;11.52;;;23.50;62.70;;;;;;5011530;28;20123;-53
2023/10/02 10:15:31;;;;;;;19.42;10.43;;;23.50;62.60;;;;;;5009952;28;20663;-53
2023/10/02 10:18:03;;;;;;;19.55;10.90;;;23.60;62.50;;;;;;5014535;28;20061;-51
2023/10/02 10:20:30;;;;;;;16.10;10.65;;;23.70;62.70;;;;;;5013560;28;20466;-53
2023/10/02 10:23:02;;;;;;;16.35;10.52;;;23.80;62.40;;;;;;5009348;28;20329;-51
2023/10/02 10:25:35;;;;;;;16.48;9.85;;;24.00;62.30;;;;;;5001285;28;20049;-53
2023/10/02 10:30:39;;;;;;;17.10;10.10;;;24.20;62.40;;;;;;5013690;28;20053;-54
2023/10/02 10:35:51;;;;;;;18.90;9.98;;;24.60;62.60;;;;;;5008590;28;19925;-50
2023/10/02 10:38:21;;;;;;;17.30;10.27;;;24.70;61.90;;;;;;5009691;28;20052;-52
2023/10/02 10:40:53;;;;;;;14.75;9.88;;;24.80;62.00;;;;;;5009160;28;20041;-50
2023/10/02 10:43:26;;;;;;;;;;;24.90;60.60;;;;;;5009376;28;20478;-52
2023/10/02 10:45:54;;;;;;;15.50;9.75;;;25.10;61.50;;;;;;5009325;28;20320;-53
2023/10/02 10:48:22;;;;;;;17.63;10.13;;;25.30;60.20;;;;;;5009086;28;20494;-52
2023/10/02 10:50:59;;;;;;;14.80;9.25;;;25.40;59.30;;;;;;5009336;28;20550;-53
2023/10/02 10:53:28;;;;;;;16.33;10.02;;;25.50;59.10;;;;;;5006897;28;20042;-52
2023/10/02 10:56:16;;;;;;;20.77;10.63;;;25.60;58.70;;;;;;5005813;28;20061;-50
2023/10/02 10:58:47;;;;;;;18.55;10.63;;;25.80;59.40;;;;;;5014195;28;20080;-55
2023/10/02 11:01:20;;;;;;;17.83;10.25;;;25.90;59.00;;;;;;5009211;28;20048;-54
2023/10/02 11:03:59;;;;;;;16.10;9.65;;;26.00;58.70;;;;;;5009070;28;20042;-52
2023/10/02 11:06:26;;;;;;;14.50;9.68;;;26.10;59.10;;;;;;5015754;28;20049;-52
2023/10/02 11:09:11;;;;;;;15.00;9.05;;;26.20;58.40;;;;;;5007827;28;20555;-54
2023/10/02 11:11:49;;;;;;;18.60;9.43;;;26.40;58.10;;;;;;5009229;28;20565;-51
2023/10/02 11:14:20;;;;;;;16.70;9.60;;;26.50;57.20;;;;;;5009604;28;20060;-52
2023/10/02 11:16:54;;;;;;;20.02;10.55;;;26.70;56.90;;;;;;5011482;28;20038;-51
2023/10/02 11:19:26;;;;;;;16.60;10.65;;;26.90;56.80;;;;;;5008900;28;20749;-53
2023/10/02 11:22:20;;;;;;;17.33;9.57;;;27.00;55.70;;;;;;5013187;28;20044;-52
2023/10/02 11:24:53;;;;;;;16.73;10.10;;;27.20;55.60;;;;;;5008760;28;20045;-53
2023/10/02 11:27:21;;;;;;;18.73;9.88;;;27.40;55.10;;;;;;5012788;28;20053;-57
2023/10/02 11:30:01;;;;;;;15.95;9.50;;;27.50;55.60;;;;;;5008784;28;20504;-53
2023/10/02 11:32:58;;;;;;;17.25;10.20;;;27.60;54.90;;;;;;5012858;28;20052;-51
2023/10/02 11:35:30;;;;;;;16.23;10.30;;;27.80;55.10;;;;;;5015936;28;20050;-52
2023/10/02 11:38:01;;;;;;;16.85;9.95;;;27.90;54.80;;;;;;5009732;28;20044;-53
2023/10/02 11:40:28;;;;;;;15.60;9.77;;;28.00;54.10;;;;;;5021690;28;20038;-55
2023/10/02 11:42:59;;;;;;;20.63;10.48;;;28.10;54.10;;;;;;5020762;28;20037;-54
2023/10/02 11:45:28;;;;;;;16.15;9.15;;;28.20;53.50;;;;;;5010355;28;20104;-53
2023/10/02 11:47:55;;;;;;;16.98;9.45;;;28.30;53.00;;;;;;5009069;28;20038;-54
2023/10/02 11:50:25;;;;;;;16.60;9.88;;;28.30;52.80;;;;;;5017668;28;20527;-57
2023/10/02 11:52:59;;;;;;;14.88;9.73;;;28.40;52.40;;;;;;5008643;28;20036;-54
2023/10/02 11:55:26;;;;;;;15.00;9.20;;;28.50;52.60;;;;;;5022428;28;20122;-54
2023/10/02 11:57:53;;;;;;;15.43;10.13;;;28.50;52.40;;;;;;5015254;28;20049;-56
2023/10/02 12:00:23;;;;;;;16.13;9.75;;;28.50;52.50;;;;;;5016170;28;20680;-53
2023/10/02 12:02:52;;;;;;;15.40;9.32;;;28.60;52.60;;;;;;5016891;28;20053;-53
2023/10/02 12:05:19;;;;;;;14.98;9.63;;;28.60;52.50;;;;;;5014760;28;20046;-56
2023/10/02 12:07:47;;;;;;;13.57;10.13;;;28.70;52.00;;;;;;5017182;28;20091;-53
2023/10/02 12:10:17;;;;;;;15.68;8.52;;;28.70;51.90;;;;;;5019287;28;20038;-51
2023/10/02 12:12:47;;;;;;;17.63;10.00;;;28.70;52.50;;;;;;5012856;28;20045;-51
2023/10/02 12:15:21;;;;;;;17.45;10.95;;;28.70;53.10;;;;;;5024749;23;20053;-50
2023/10/02 12:17:48;;;;;;;17.40;10.48;;;28.80;52.00;;;;;;5003206;28;20638;-49
2023/10/02 12:20:16;;;;;;;13.68;9.38;;;28.80;52.10;;;;;;5011187;28;20042;-51
2023/10/02 12:22:46;;;;;;;17.00;11.00;;;28.90;52.60;;;;;;5007238;28;20129;-51
2023/10/02 12:25:14;;;;;;;15.93;9.85;;;28.90;51.80;;;;;;5001001;28;20078;-51
2023/10/02 12:27:44;;;;;;;14.68;10.18;;;29.00;51.80;;;;;;4980662;28;20042;-49
2023/10/02 12:30:11;;;;;;;13.38;9.60;;;29.10;51.00;;;;;;4982690;28;20043;-50
2023/10/02 12:32:45;;;;;;;15.32;9.50;;;29.20;51.40;;;;;;4991200;28;20046;-54
2023/10/02 12:35:16;;;;;;;16.85;10.38;;;29.30;50.80;;;;;;4987288;28;20073;-52
2023/10/02 12:37:46;;;;;;;15.27;9.40;;;29.30;51.10;;;;;;4992454;28;20038;-52
2023/10/02 12:40:18;;;;;;;14.23;9.25;;;29.40;50.80;;;;;;4992446;28;20603;-51
2023/10/02 12:42:45;;;;;;;;;;;29.40;51.20;;;;;;4984049;28;20050;-54
2023/10/02 12:45:14;;;;;;;13.10;9.30;;;29.50;52.00;;;;;;4990916;28;19961;-54
2023/10/02 12:47:41;;;;;;;13.93;9.88;;;29.40;51.10;;;;;;4989759;28;20050;-54
2023/10/02 12:50:10;;;;;;;18.35;10.45;;;29.40;51.20;;;;;;4992455;28;20508;-52
2023/10/02 12:52:43;;;;;;;13.27;9.43;;;29.50;51.00;;;;;;4986306;28;20046;-53
2023/10/02 12:55:11;;;;;;;17.08;10.20;;;29.50;50.70;;;;;;4990453;28;20527;-53
2023/10/02 12:57:40;;;;;;;17.75;9.25;;;29.50;50.90;;;;;;4990915;28;20153;-51
2023/10/02 13:00:16;;;;;;;16.92;10.10;;;29.60;50.80;;;;;;4990764;28;20089;-52
2023/10/02 13:02:50;;;;;;;19.35;10.25;;;29.60;50.10;;;;;;4983693;28;20045;-54
2023/10/02 13:05:22;;;;;;;16.90;9.95;;;29.70;50.00;;;;;;4983874;28;20048;-51
2023/10/02 13:07:56;;;;;;;14.10;9.27;;;29.60;50.30;;;;;;4985646;28;20472;-54
2023/10/02 13:10:26;;;;;;;19.95;9.85;;;29.60;50.70;;;;;;4987782;28;20061;-54
2023/10/02 13:12:57;;;;;;;12.45;9.15;;;29.70;51.00;;;;;;4977371;28;20097;-54
2023/10/02 13:15:28;;;;;;;14.88;9.07;;;29.70;51.40;;;;;;4973654;28;20073;-54
2023/10/02 13:17:58;;;;;;;13.57;9.73;;;29.70;51.10;;;;;;4988840;28;20416;-54
2023/10/02 13:20:26;;;;;;;18.92;10.02;;;29.70;51.00;;;;;;4991692;28;20053;-53
2023/10/02 13:22:55;;;;;;;16.13;9.35;;;29.80;51.30;;;;;;4991336;28;20042;-54
2023/10/02 13:25:31;;;;;;;13.40;8.98;;;29.90;51.30;;;;;;4985377;28;20090;-54
2023/10/02 13:27:59;;;;;;;14.93;9.07;;;29.90;51.60;;;;;;4990966;28;20459;-54
2023/10/02 13:30:30;;;;;;;17.00;9.75;;;30.00;51.60;;;;;;4991999;28;20556;-54
2023/10/02 13:33:00;;;;;;;16.00;9.30;;;30.00;51.20;;;;;;4991409;28;20101;-54
2023/10/02 13:35:34;;;;;;;18.40;10.30;;;30.10;51.70;;;;;;4984991;28;20066;-52
2023/10/02 13:38:04;;;;;;;14.07;9.70;;;30.20;51.80;;;;;;4991763;28;20489;-54
2023/10/02 13:40:36;;;;;;;14.60;8.93;;;30.40;50.20;;;;;;4989939;28;20424;-53
2023/10/02 13:43:07;;;;;;;12.85;8.30;;;30.60;50.90;;;;;;4988507;28;20038;-53
2023/10/02 13:45:35;;;;;;;15.75;9.30;;;30.80;50.90;;;;;;4989447;28;20065;-50
2023/10/02 13:48:04;;;;;;;15.55;8.75;;;31.10;50.00;;;;;;4991561;28;20078;-54
2023/10/02 13:50:35;;;;;;;12.48;9.20;;;31.40;50.10;;;;;;4992347;28;20104;-53
2023/10/02 13:53:20;;;;;;;13.70;9.00;;;31.60;49.60;;;;;;4985786;28;20049;-53
2023/10/02 13:56:08;;;;;;;13.57;9.00;;;32.00;49.70;;;;;;4991050;28;20102;-52
2023/10/02 13:58:39;;;;;;;12.23;8.65;;;32.30;47.90;;;;;;4991477;28;20058;-53
2023/10/02 14:01:10;;;;;;;15.70;9.18;;;32.70;47.90;;;;;;4985959;28;20045;-54
2023/10/02 14:03:38;;;;;;;15.43;9.32;;;33.10;47.40;;;;;;4987889;28;20043;-52
2023/10/02 14:06:08;;;;;;;14.13;9.40;;;33.60;47.20;;;;;;4979425;28;20516;-54
2023/10/02 14:08:42;;;;;;;14.55;10.55;;;34.00;45.50;;;;;;4982684;28;20074;-54